KACT

Waco Regional Airport

Waco, Texas, USA
METAR KACT 201751Z 15011G17KT 10SM CLR 18/04 A3025 RMK AO2 SLP240 T01830044 10189 20100 58016
Observed Flight Rules
Apr-20 @ 17:51 UTC (43 minutes ago) Visual Flight Rules
Wind Visibility Clouds
150° at 11 knots
 Gusting to 17 knots
10 miles
  • Clear skies
Temperatures Readings
Current 18°C / 64°F
Dewpoint 4°C / 39°F
Humidity 40%
Altimeter 30.25" Hg
Pressure 1024 hPa
Elevation 151
METAR KACT 201751Z 15011G17KT 10SM CLR 18/04 A3025 RMK AO2 SLP240 T01830044 10189 20100 58016
Observed Flight Rules
Apr-20 @ 17:51 UTC
(43 minutes ago)
VFR
Wind Visibility
150° at 11 knots
 Gusting to 17 knots
10 miles
Clouds
  • Clear skies
Temperature Dewpoint
18°C / 64°F 4°C / 39°F
Humidity Altimeter Pressure
40% 30.25" Hg 1024 hPa